sensor_id;sensor_type;location;lat;lon;timestamp;temperature;humidity
27072;DHT22;14613;46.308;25.288;2023-06-10T00:01:53;18.80;68.90
27072;DHT22;14613;46.308;25.288;2023-06-10T00:04:22;18.80;69.00
27072;DHT22;14613;46.308;25.288;2023-06-10T00:06:47;18.80;69.00
27072;DHT22;14613;46.308;25.288;2023-06-10T00:09:15;18.80;69.00
27072;DHT22;14613;46.308;25.288;2023-06-10T00:11:41;18.80;69.00
27072;DHT22;14613;46.308;25.288;2023-06-10T00:14:08;18.80;69.10
27072;DHT22;14613;46.308;25.288;2023-06-10T00:16:34;18.80;69.10
27072;DHT22;14613;46.308;25.288;2023-06-10T00:19:02;18.70;69.10
27072;DHT22;14613;46.308;25.288;2023-06-10T00:21:32;18.70;69.30
27072;DHT22;14613;46.308;25.288;2023-06-10T00:24:06;18.70;69.60
27072;DHT22;14613;46.308;25.288;2023-06-10T00:26:34;18.60;69.70
27072;DHT22;14613;46.308;25.288;2023-06-10T00:29:00;18.60;69.90
27072;DHT22;14613;46.308;25.288;2023-06-10T00:31:26;18.50;70.00
27072;DHT22;14613;46.308;25.288;2023-06-10T00:33:55;18.50;70.00
27072;DHT22;14613;46.308;25.288;2023-06-10T00:36:21;18.50;70.20
27072;DHT22;14613;46.308;25.288;2023-06-10T00:38:47;18.50;70.30
27072;DHT22;14613;46.308;25.288;2023-06-10T00:41:13;18.50;70.30
27072;DHT22;14613;46.308;25.288;2023-06-10T00:43:39;18.60;70.50
27072;DHT22;14613;46.308;25.288;2023-06-10T00:46:05;18.60;70.70
27072;DHT22;14613;46.308;25.288;2023-06-10T00:48:31;18.50;70.80
27072;DHT22;14613;46.308;25.288;2023-06-10T00:50:57;18.50;70.90
27072;DHT22;14613;46.308;25.288;2023-06-10T00:53:24;18.60;71.10
27072;DHT22;14613;46.308;25.288;2023-06-10T00:55:50;18.50;71.20
27072;DHT22;14613;46.308;25.288;2023-06-10T00:58:16;18.40;71.40
27072;DHT22;14613;46.308;25.288;2023-06-10T01:00:42;18.30;71.50
27072;DHT22;14613;46.308;25.288;2023-06-10T01:03:10;18.30;71.70
27072;DHT22;14613;46.308;25.288;2023-06-10T01:05:38;18.30;71.70
27072;DHT22;14613;46.308;25.288;2023-06-10T01:08:15;18.30;71.70
27072;DHT22;14613;46.308;25.288;2023-06-10T01:10:51;18.40;71.80
27072;DHT22;14613;46.308;25.288;2023-06-10T01:13:18;18.30;71.80
27072;DHT22;14613;46.308;25.288;2023-06-10T01:15:50;18.30;72.00
27072;DHT22;14613;46.308;25.288;2023-06-10T01:18:16;18.20;72.10
27072;DHT22;14613;46.308;25.288;2023-06-10T01:20:43;18.20;72.30
27072;DHT22;14613;46.308;25.288;2023-06-10T01:23:10;18.20;72.30
27072;DHT22;14613;46.308;25.288;2023-06-10T01:25:49;18.30;72.30
27072;DHT22;14613;46.308;25.288;2023-06-10T01:28:31;18.30;72.30
27072;DHT22;14613;46.308;25.288;2023-06-10T01:33:46;18.30;72.40
27072;DHT22;14613;46.308;25.288;2023-06-10T01:36:13;18.30;72.60
27072;DHT22;14613;46.308;25.288;2023-06-10T01:38:43;18.30;72.70
27072;DHT22;14613;46.308;25.288;2023-06-10T01:41:14;18.30;72.70
27072;DHT22;14613;46.308;25.288;2023-06-10T01:43:43;18.30;72.90
27072;DHT22;14613;46.308;25.288;2023-06-10T01:46:09;18.20;72.80
27072;DHT22;14613;46.308;25.288;2023-06-10T01:48:36;18.30;72.90
27072;DHT22;14613;46.308;25.288;2023-06-10T01:51:02;18.30;72.90
27072;DHT22;14613;46.308;25.288;2023-06-10T01:53:28;18.30;72.90
27072;DHT22;14613;46.308;25.288;2023-06-10T01:55:54;18.30;72.90
27072;DHT22;14613;46.308;25.288;2023-06-10T01:58:20;18.40;73.10
27072;DHT22;14613;46.308;25.288;2023-06-10T02:00:45;18.30;73.00
27072;DHT22;14613;46.308;25.288;2023-06-10T02:03:11;18.40;73.00
27072;DHT22;14613;46.308;25.288;2023-06-10T02:05:37;18.40;72.90
27072;DHT22;14613;46.308;25.288;2023-06-10T02:08:03;18.40;72.80
27072;DHT22;14613;46.308;25.288;2023-06-10T02:10:29;18.50;72.80
27072;DHT22;14613;46.308;25.288;2023-06-10T02:12:55;18.50;72.80
27072;DHT22;14613;46.308;25.288;2023-06-10T02:15:21;18.50;72.80
27072;DHT22;14613;46.308;25.288;2023-06-10T02:17:47;18.50;72.60
27072;DHT22;14613;46.308;25.288;2023-06-10T02:20:14;18.50;72.60
27072;DHT22;14613;46.308;25.288;2023-06-10T02:22:40;18.50;72.50
27072;DHT22;14613;46.308;25.288;2023-06-10T02:25:06;18.50;72.40
27072;DHT22;14613;46.308;25.288;2023-06-10T02:27:32;18.50;72.50
27072;DHT22;14613;46.308;25.288;2023-06-10T02:29:58;18.40;72.50
27072;DHT22;14613;46.308;25.288;2023-06-10T02:32:24;18.40;72.50
27072;DHT22;14613;46.308;25.288;2023-06-10T02:34:51;18.30;72.50
27072;DHT22;14613;46.308;25.288;2023-06-10T02:37:16;18.30;72.60
27072;DHT22;14613;46.308;25.288;2023-06-10T02:39:42;18.20;72.60
27072;DHT22;14613;46.308;25.288;2023-06-10T02:42:08;18.20;72.80
27072;DHT22;14613;46.308;25.288;2023-06-10T02:44:34;18.10;72.80
27072;DHT22;14613;46.308;25.288;2023-06-10T02:47:00;18.10;72.90
27072;DHT22;14613;46.308;25.288;2023-06-10T02:49:26;18.00;73.10
27072;DHT22;14613;46.308;25.288;2023-06-10T02:51:54;18.00;73.00
27072;DHT22;14613;46.308;25.288;2023-06-10T02:54:20;17.90;73.00
27072;DHT22;14613;46.308;25.288;2023-06-10T02:56:46;17.90;73.10
27072;DHT22;14613;46.308;25.288;2023-06-10T02:59:13;17.90;73.20
27072;DHT22;14613;46.308;25.288;2023-06-10T03:01:40;17.90;73.30
27072;DHT22;14613;46.308;25.288;2023-06-10T03:04:06;17.90;73.40
27072;DHT22;14613;46.308;25.288;2023-06-10T03:06:32;17.90;73.50
27072;DHT22;14613;46.308;25.288;2023-06-10T03:09:00;17.90;73.40
27072;DHT22;14613;46.308;25.288;2023-06-10T03:11:25;17.90;73.40
27072;DHT22;14613;46.308;25.288;2023-06-10T03:13:52;17.90;73.50
27072;DHT22;14613;46.308;25.288;2023-06-10T03:16:19;17.90;73.50
27072;DHT22;14613;46.308;25.288;2023-06-10T03:18:45;17.90;73.50
27072;DHT22;14613;46.308;25.288;2023-06-10T03:21:11;17.90;73.50
27072;DHT22;14613;46.308;25.288;2023-06-10T03:23:37;17.90;73.40
27072;DHT22;14613;46.308;25.288;2023-06-10T03:26:03;17.90;73.40
27072;DHT22;14613;46.308;25.288;2023-06-10T03:28:30;18.00;73.40
27072;DHT22;14613;46.308;25.288;2023-06-10T03:30:56;18.00;73.50
27072;DHT22;14613;46.308;25.288;2023-06-10T03:33:22;17.90;73.60
27072;DHT22;14613;46.308;25.288;2023-06-10T03:35:48;17.90;73.80
27072;DHT22;14613;46.308;25.288;2023-06-10T03:38:14;17.90;73.90
27072;DHT22;14613;46.308;25.288;2023-06-10T03:40:40;17.90;74.00
27072;DHT22;14613;46.308;25.288;2023-06-10T03:43:05;17.90;74.00
27072;DHT22;14613;46.308;25.288;2023-06-10T03:45:31;18.00;74.00
27072;DHT22;14613;46.308;25.288;2023-06-10T03:47:57;18.00;74.00
27072;DHT22;14613;46.308;25.288;2023-06-10T03:50:23;18.00;74.00
27072;DHT22;14613;46.308;25.288;2023-06-10T03:52:50;18.00;74.00
27072;DHT22;14613;46.308;25.288;2023-06-10T03:55:16;18.00;74.00
27072;DHT22;14613;46.308;25.288;2023-06-10T03:57:43;18.10;74.10
27072;DHT22;14613;46.308;25.288;2023-06-10T04:00:09;18.20;74.50
27072;DHT22;14613;46.308;25.288;2023-06-10T04:02:37;18.50;75.10
27072;DHT22;14613;46.308;25.288;2023-06-10T04:05:12;18.90;75.20
27072;DHT22;14613;46.308;25.288;2023-06-10T04:07:38;19.40;74.90
27072;DHT22;14613;46.308;25.288;2023-06-10T04:10:07;19.90;74.70
27072;DHT22;14613;46.308;25.288;2023-06-10T04:12:33;20.40;74.20
27072;DHT22;14613;46.308;25.288;2023-06-10T04:14:58;20.80;73.10
27072;DHT22;14613;46.308;25.288;2023-06-10T04:17:25;21.20;72.40
27072;DHT22;14613;46.308;25.288;2023-06-10T04:19:51;21.50;72.40
27072;DHT22;14613;46.308;25.288;2023-06-10T04:22:18;21.70;71.00
27072;DHT22;14613;46.308;25.288;2023-06-10T04:24:44;21.90;70.50
27072;DHT22;14613;46.308;25.288;2023-06-10T04:27:09;22.10;70.20
27072;DHT22;14613;46.308;25.288;2023-06-10T04:29:35;22.40;69.90
27072;DHT22;14613;46.308;25.288;2023-06-10T04:32:02;22.60;69.40
27072;DHT22;14613;46.308;25.288;2023-06-10T04:34:28;22.90;69.10
27072;DHT22;14613;46.308;25.288;2023-06-10T04:36:54;23.30;68.60
27072;DHT22;14613;46.308;25.288;2023-06-10T04:39:19;23.60;67.50
27072;DHT22;14613;46.308;25.288;2023-06-10T04:41:45;23.80;66.90
27072;DHT22;14613;46.308;25.288;2023-06-10T04:44:12;24.10;66.60
27072;DHT22;14613;46.308;25.288;2023-06-10T04:46:38;24.40;65.90
27072;DHT22;14613;46.308;25.288;2023-06-10T04:49:03;24.80;65.40
27072;DHT22;14613;46.308;25.288;2023-06-10T04:51:30;25.20;64.60
27072;DHT22;14613;46.308;25.288;2023-06-10T04:53:57;25.50;65.00
27072;DHT22;14613;46.308;25.288;2023-06-10T04:56:23;25.90;63.40
27072;DHT22;14613;46.308;25.288;2023-06-10T04:58:49;26.10;62.30
27072;DHT22;14613;46.308;25.288;2023-06-10T05:01:15;26.20;61.40
27072;DHT22;14613;46.308;25.288;2023-06-10T05:03:41;26.20;60.90
27072;DHT22;14613;46.308;25.288;2023-06-10T05:06:07;26.10;60.70
27072;DHT22;14613;46.308;25.288;2023-06-10T05:08:33;26.10;60.70
27072;DHT22;14613;46.308;25.288;2023-06-10T05:10:59;26.40;60.70
27072;DHT22;14613;46.308;25.288;2023-06-10T05:13:25;26.70;60.10
27072;DHT22;14613;46.308;25.288;2023-06-10T05:15:50;26.90;59.30
27072;DHT22;14613;46.308;25.288;2023-06-10T05:18:16;27.10;59.00
27072;DHT22;14613;46.308;25.288;2023-06-10T05:20:42;27.20;58.70
27072;DHT22;14613;46.308;25.288;2023-06-10T05:23:08;27.30;57.90
27072;DHT22;14613;46.308;25.288;2023-06-10T05:25:34;27.20;57.60
27072;DHT22;14613;46.308;25.288;2023-06-10T05:28:00;27.00;57.80
27072;DHT22;14613;46.308;25.288;2023-06-10T05:30:26;27.20;58.00
27072;DHT22;14613;46.308;25.288;2023-06-10T05:32:52;27.50;57.80
27072;DHT22;14613;46.308;25.288;2023-06-10T05:35:18;27.80;57.40
27072;DHT22;14613;46.308;25.288;2023-06-10T05:37:44;27.90;56.70
27072;DHT22;14613;46.308;25.288;2023-06-10T05:40:11;27.90;56.20
27072;DHT22;14613;46.308;25.288;2023-06-10T05:42:37;27.80;56.40
27072;DHT22;14613;46.308;25.288;2023-06-10T05:45:03;27.70;56.80
27072;DHT22;14613;46.308;25.288;2023-06-10T05:47:29;27.80;56.80
27072;DHT22;14613;46.308;25.288;2023-06-10T05:49:54;28.00;56.40
27072;DHT22;14613;46.308;25.288;2023-06-10T05:52:20;28.00;55.90
27072;DHT22;14613;46.308;25.288;2023-06-10T05:54:46;27.90;55.70
27072;DHT22;14613;46.308;25.288;2023-06-10T05:57:12;27.60;55.90
27072;DHT22;14613;46.308;25.288;2023-06-10T05:59:37;27.60;56.40
27072;DHT22;14613;46.308;25.288;2023-06-10T06:02:03;27.70;56.40
27072;DHT22;14613;46.308;25.288;2023-06-10T06:04:29;28.00;56.10
27072;DHT22;14613;46.308;25.288;2023-06-10T06:06:55;28.40;56.10
27072;DHT22;14613;46.308;25.288;2023-06-10T06:09:21;28.80;55.60
27072;DHT22;14613;46.308;25.288;2023-06-10T06:11:46;29.20;55.30
27072;DHT22;14613;46.308;25.288;2023-06-10T06:14:12;29.30;53.90
27072;DHT22;14613;46.308;25.288;2023-06-10T06:16:38;29.10;53.30
27072;DHT22;14613;46.308;25.288;2023-06-10T06:19:04;28.80;53.40
27072;DHT22;14613;46.308;25.288;2023-06-10T06:21:30;28.60;54.00
27072;DHT22;14613;46.308;25.288;2023-06-10T06:23:55;28.60;53.60
27072;DHT22;14613;46.308;25.288;2023-06-10T06:26:21;28.60;53.80
27072;DHT22;14613;46.308;25.288;2023-06-10T06:28:47;29.00;53.80
27072;DHT22;14613;46.308;25.288;2023-06-10T06:31:12;29.40;53.50
27072;DHT22;14613;46.308;25.288;2023-06-10T06:33:38;29.90;53.20
27072;DHT22;14613;46.308;25.288;2023-06-10T06:36:04;30.30;52.50
27072;DHT22;14613;46.308;25.288;2023-06-10T06:38:30;30.70;51.90
27072;DHT22;14613;46.308;25.288;2023-06-10T06:40:56;31.00;51.60
27072;DHT22;14613;46.308;25.288;2023-06-10T06:43:21;31.30;51.20
27072;DHT22;14613;46.308;25.288;2023-06-10T06:45:47;31.70;50.90
27072;DHT22;14613;46.308;25.288;2023-06-10T06:48:13;31.90;50.40
27072;DHT22;14613;46.308;25.288;2023-06-10T06:50:38;32.10;50.00
27072;DHT22;14613;46.308;25.288;2023-06-10T06:53:07;32.30;49.70
27072;DHT22;14613;46.308;25.288;2023-06-10T06:55:32;32.60;49.60
27072;DHT22;14613;46.308;25.288;2023-06-10T06:57:58;32.80;49.50
27072;DHT22;14613;46.308;25.288;2023-06-10T07:00:28;33.10;49.30
27072;DHT22;14613;46.308;25.288;2023-06-10T07:02:53;33.40;49.20
27072;DHT22;14613;46.308;25.288;2023-06-10T07:05:19;33.50;48.60
27072;DHT22;14613;46.308;25.288;2023-06-10T07:07:45;33.60;48.40
27072;DHT22;14613;46.308;25.288;2023-06-10T07:10:11;33.70;48.40
27072;DHT22;14613;46.308;25.288;2023-06-10T07:12:37;33.70;48.30
27072;DHT22;14613;46.308;25.288;2023-06-10T07:15:03;33.80;48.20
27072;DHT22;14613;46.308;25.288;2023-06-10T07:17:28;33.90;48.20
27072;DHT22;14613;46.308;25.288;2023-06-10T07:19:54;33.90;48.20
27072;DHT22;14613;46.308;25.288;2023-06-10T07:22:22;34.00;48.10
27072;DHT22;14613;46.308;25.288;2023-06-10T07:24:48;34.10;48.10
27072;DHT22;14613;46.308;25.288;2023-06-10T07:27:14;34.10;47.80
27072;DHT22;14613;46.308;25.288;2023-06-10T07:29:40;34.20;47.50
27072;DHT22;14613;46.308;25.288;2023-06-10T07:32:06;34.30;47.40
27072;DHT22;14613;46.308;25.288;2023-06-10T07:34:32;34.40;47.20
27072;DHT22;14613;46.308;25.288;2023-06-10T07:37:04;34.30;47.10
27072;DHT22;14613;46.308;25.288;2023-06-10T07:39:29;34.30;47.30
27072;DHT22;14613;46.308;25.288;2023-06-10T07:41:55;34.30;47.90
27072;DHT22;14613;46.308;25.288;2023-06-10T07:44:23;34.30;47.20
27072;DHT22;14613;46.308;25.288;2023-06-10T07:46:49;34.30;47.00
27072;DHT22;14613;46.308;25.288;2023-06-10T07:49:15;34.40;46.90
27072;DHT22;14613;46.308;25.288;2023-06-10T07:51:40;34.50;47.00
27072;DHT22;14613;46.308;25.288;2023-06-10T07:54:06;34.50;46.80
27072;DHT22;14613;46.308;25.288;2023-06-10T07:56:32;34.60;46.60
27072;DHT22;14613;46.308;25.288;2023-06-10T07:58:58;34.50;46.40
27072;DHT22;14613;46.308;25.288;2023-06-10T08:01:23;34.50;46.30
27072;DHT22;14613;46.308;25.288;2023-06-10T08:03:49;34.30;46.40
27072;DHT22;14613;46.308;25.288;2023-06-10T08:09:22;34.30;46.50
27072;DHT22;14613;46.308;25.288;2023-06-10T08:11:48;34.20;46.20
27072;DHT22;14613;46.308;25.288;2023-06-10T08:14:15;34.30;46.30
27072;DHT22;14613;46.308;25.288;2023-06-10T08:16:42;34.40;46.30
27072;DHT22;14613;46.308;25.288;2023-06-10T08:19:08;34.50;46.10
27072;DHT22;14613;46.308;25.288;2023-06-10T08:21:35;34.60;46.20
27072;DHT22;14613;46.308;25.288;2023-06-10T08:24:03;34.70;46.00
27072;DHT22;14613;46.308;25.288;2023-06-10T08:26:29;34.80;45.80
27072;DHT22;14613;46.308;25.288;2023-06-10T08:28:54;34.90;45.30
27072;DHT22;14613;46.308;25.288;2023-06-10T08:31:21;34.80;45.20
27072;DHT22;14613;46.308;25.288;2023-06-10T08:33:46;34.60;45.00
27072;DHT22;14613;46.308;25.288;2023-06-10T08:36:12;34.40;45.00
27072;DHT22;14613;46.308;25.288;2023-06-10T08:38:38;34.10;45.00
27072;DHT22;14613;46.308;25.288;2023-06-10T08:41:05;34.00;45.00
27072;DHT22;14613;46.308;25.288;2023-06-10T08:43:43;33.50;44.90
27072;DHT22;14613;46.308;25.288;2023-06-10T08:46:10;33.20;45.20
27072;DHT22;14613;46.308;25.288;2023-06-10T08:48:42;33.10;45.70
27072;DHT22;14613;46.308;25.288;2023-06-10T08:51:10;33.10;45.70
27072;DHT22;14613;46.308;25.288;2023-06-10T08:53:38;33.30;45.60
27072;DHT22;14613;46.308;25.288;2023-06-10T08:56:10;33.40;45.40
27072;DHT22;14613;46.308;25.288;2023-06-10T08:58:37;33.40;45.00
27072;DHT22;14613;46.308;25.288;2023-06-10T09:01:07;33.40;44.90
27072;DHT22;14613;46.308;25.288;2023-06-10T09:03:37;33.40;44.70
27072;DHT22;14613;46.308;25.288;2023-06-10T09:06:05;33.40;44.60
27072;DHT22;14613;46.308;25.288;2023-06-10T09:08:33;33.10;44.10
27072;DHT22;14613;46.308;25.288;2023-06-10T09:10:59;32.80;44.20
27072;DHT22;14613;46.308;25.288;2023-06-10T09:13:25;32.50;44.30
27072;DHT22;14613;46.308;25.288;2023-06-10T09:15:51;32.50;44.70
27072;DHT22;14613;46.308;25.288;2023-06-10T09:18:17;32.70;44.80
27072;DHT22;14613;46.308;25.288;2023-06-10T09:20:43;33.10;44.30
27072;DHT22;14613;46.308;25.288;2023-06-10T09:23:09;33.20;43.90
27072;DHT22;14613;46.308;25.288;2023-06-10T09:25:36;33.40;43.80
27072;DHT22;14613;46.308;25.288;2023-06-10T09:28:03;33.70;43.80
27072;DHT22;14613;46.308;25.288;2023-06-10T09:30:31;34.00;43.70
27072;DHT22;14613;46.308;25.288;2023-06-10T09:32:59;34.20;43.20
27072;DHT22;14613;46.308;25.288;2023-06-10T09:35:26;34.40;42.60
27072;DHT22;14613;46.308;25.288;2023-06-10T09:37:53;34.40;42.50
27072;DHT22;14613;46.308;25.288;2023-06-10T09:40:19;34.50;42.20
27072;DHT22;14613;46.308;25.288;2023-06-10T09:42:45;34.40;41.70
27072;DHT22;14613;46.308;25.288;2023-06-10T09:45:14;34.20;41.60
27072;DHT22;14613;46.308;25.288;2023-06-10T09:47:40;33.80;41.60
27072;DHT22;14613;46.308;25.288;2023-06-10T09:50:06;33.60;41.90
27072;DHT22;14613;46.308;25.288;2023-06-10T09:52:32;33.40;42.00
27072;DHT22;14613;46.308;25.288;2023-06-10T09:55:02;33.40;42.50
27072;DHT22;14613;46.308;25.288;2023-06-10T09:57:32;33.30;42.50
27072;DHT22;14613;46.308;25.288;2023-06-10T09:59:59;33.30;42.60
27072;DHT22;14613;46.308;25.288;2023-06-10T10:02:29;33.40;42.80
27072;DHT22;14613;46.308;25.288;2023-06-10T10:05:02;33.70;42.60
27072;DHT22;14613;46.308;25.288;2023-06-10T10:07:28;33.90;42.30
27072;DHT22;14613;46.308;25.288;2023-06-10T10:09:54;34.20;42.20
27072;DHT22;14613;46.308;25.288;2023-06-10T10:12:20;34.50;41.90
27072;DHT22;14613;46.308;25.288;2023-06-10T10:14:47;34.80;41.70
27072;DHT22;14613;46.308;25.288;2023-06-10T10:17:15;35.10;41.50
27072;DHT22;14613;46.308;25.288;2023-06-10T10:19:47;35.20;41.10
27072;DHT22;14613;46.308;25.288;2023-06-10T10:22:25;35.30;40.80
27072;DHT22;14613;46.308;25.288;2023-06-10T10:25:02;35.40;40.70
27072;DHT22;14613;46.308;25.288;2023-06-10T10:27:56;35.40;40.50
27072;DHT22;14613;46.308;25.288;2023-06-10T10:30:20;35.40;40.50
27072;DHT22;14613;46.308;25.288;2023-06-10T10:33:06;35.50;40.40
27072;DHT22;14613;46.308;25.288;2023-06-10T10:35:36;35.50;40.30
27072;DHT22;14613;46.308;25.288;2023-06-10T10:38:03;35.60;40.40
27072;DHT22;14613;46.308;25.288;2023-06-10T10:40:30;35.70;40.10
27072;DHT22;14613;46.308;25.288;2023-06-10T10:42:58;35.80;40.00
27072;DHT22;14613;46.308;25.288;2023-06-10T10:45:27;35.70;39.60
27072;DHT22;14613;46.308;25.288;2023-06-10T10:47:54;35.40;39.30
27072;DHT22;14613;46.308;25.288;2023-06-10T10:50:21;35.30;39.40
27072;DHT22;14613;46.308;25.288;2023-06-10T10:55:19;35.30;39.20
27072;DHT22;14613;46.308;25.288;2023-06-10T10:57:54;35.10;39.20
27072;DHT22;14613;46.308;25.288;2023-06-10T11:00:43;34.90;39.20
27072;DHT22;14613;46.308;25.288;2023-06-10T11:03:14;34.70;39.30
27072;DHT22;14613;46.308;25.288;2023-06-10T11:05:42;34.20;39.50
27072;DHT22;14613;46.308;25.288;2023-06-10T11:08:10;33.70;40.60
27072;DHT22;14613;46.308;25.288;2023-06-10T11:10:38;33.10;40.80
27072;DHT22;14613;46.308;25.288;2023-06-10T11:13:13;32.10;43.00
27072;DHT22;14613;46.308;25.288;2023-06-10T11:15:48;30.50;45.60
27072;DHT22;14613;46.308;25.288;2023-06-10T11:18:23;29.30;47.10
27072;DHT22;14613;46.308;25.288;2023-06-10T11:27:12;27.90;50.30
27072;DHT22;14613;46.308;25.288;2023-06-10T11:29:09;27.60;50.30
27072;DHT22;14613;46.308;25.288;2023-06-10T11:31:45;27.30;50.90
27072;DHT22;14613;46.308;25.288;2023-06-10T11:34:12;27.10;51.40
27072;DHT22;14613;46.308;25.288;2023-06-10T11:36:40;27.00;52.00
27072;DHT22;14613;46.308;25.288;2023-06-10T11:39:08;26.90;52.40
27072;DHT22;14613;46.308;25.288;2023-06-10T11:41:35;26.60;52.50
27072;DHT22;14613;46.308;25.288;2023-06-10T11:44:08;26.20;52.60
27072;DHT22;14613;46.308;25.288;2023-06-10T11:46:34;26.00;52.90
27072;DHT22;14613;46.308;25.288;2023-06-10T11:49:01;25.80;53.20
27072;DHT22;14613;46.308;25.288;2023-06-10T11:51:33;25.70;53.30
27072;DHT22;14613;46.308;25.288;2023-06-10T11:53:58;25.50;53.40
27072;DHT22;14613;46.308;25.288;2023-06-10T11:56:26;25.30;53.40
27072;DHT22;14613;46.308;25.288;2023-06-10T11:59:02;25.00;53.80
27072;DHT22;14613;46.308;25.288;2023-06-10T12:01:31;24.70;54.70
27072;DHT22;14613;46.308;25.288;2023-06-10T12:06:26;24.00;55.70
27072;DHT22;14613;46.308;25.288;2023-06-10T12:08:53;23.90;56.00
27072;DHT22;14613;46.308;25.288;2023-06-10T12:11:20;23.70;56.20
27072;DHT22;14613;46.308;25.288;2023-06-10T12:13:50;23.60;56.40
27072;DHT22;14613;46.308;25.288;2023-06-10T12:16:33;23.60;56.60
27072;DHT22;14613;46.308;25.288;2023-06-10T12:19:06;23.60;56.70
27072;DHT22;14613;46.308;25.288;2023-06-10T12:21:33;23.60;56.90
27072;DHT22;14613;46.308;25.288;2023-06-10T12:24:04;23.50;57.10
27072;DHT22;14613;46.308;25.288;2023-06-10T12:26:36;23.40;57.20
27072;DHT22;14613;46.308;25.288;2023-06-10T12:29:23;23.30;57.50
27072;DHT22;14613;46.308;25.288;2023-06-10T12:32:02;23.20;57.80
27072;DHT22;14613;46.308;25.288;2023-06-10T12:34:38;23.10;58.10
27072;DHT22;14613;46.308;25.288;2023-06-10T12:37:12;23.00;58.60
27072;DHT22;14613;46.308;25.288;2023-06-10T12:39:39;22.80;59.10
27072;DHT22;14613;46.308;25.288;2023-06-10T12:42:06;22.60;59.70
27072;DHT22;14613;46.308;25.288;2023-06-10T12:44:39;22.40;60.80
27072;DHT22;14613;46.308;25.288;2023-06-10T12:47:11;22.40;61.40
27072;DHT22;14613;46.308;25.288;2023-06-10T12:49:40;22.30;61.70
27072;DHT22;14613;46.308;25.288;2023-06-10T12:52:06;22.30;61.70
27072;DHT22;14613;46.308;25.288;2023-06-10T12:54:33;22.40;61.70
27072;DHT22;14613;46.308;25.288;2023-06-10T12:56:59;22.50;61.60
27072;DHT22;14613;46.308;25.288;2023-06-10T12:59:26;22.60;61.70
27072;DHT22;14613;46.308;25.288;2023-06-10T13:01:53;22.60;61.70
27072;DHT22;14613;46.308;25.288;2023-06-10T13:04:20;22.60;61.70
27072;DHT22;14613;46.308;25.288;2023-06-10T13:06:47;22.50;62.20
27072;DHT22;14613;46.308;25.288;2023-06-10T13:09:15;22.40;62.90
27072;DHT22;14613;46.308;25.288;2023-06-10T13:11:41;22.40;63.30
27072;DHT22;14613;46.308;25.288;2023-06-10T13:14:08;22.40;63.30
27072;DHT22;14613;46.308;25.288;2023-06-10T13:16:34;22.50;63.40
27072;DHT22;14613;46.308;25.288;2023-06-10T13:19:00;22.60;63.60
27072;DHT22;14613;46.308;25.288;2023-06-10T13:21:32;22.60;63.70
27072;DHT22;14613;46.308;25.288;2023-06-10T13:23:58;22.60;64.00
27072;DHT22;14613;46.308;25.288;2023-06-10T13:26:24;22.60;64.20
27072;DHT22;14613;46.308;25.288;2023-06-10T13:28:49;22.70;64.30
27072;DHT22;14613;46.308;25.288;2023-06-10T13:31:15;22.70;64.30
27072;DHT22;14613;46.308;25.288;2023-06-10T13:33:41;22.80;64.40
27072;DHT22;14613;46.308;25.288;2023-06-10T13:36:09;22.80;64.40
27072;DHT22;14613;46.308;25.288;2023-06-10T13:38:35;23.00;64.40
27072;DHT22;14613;46.308;25.288;2023-06-10T13:41:00;23.00;64.30
27072;DHT22;14613;46.308;25.288;2023-06-10T13:43:26;23.10;64.20
27072;DHT22;14613;46.308;25.288;2023-06-10T13:45:52;23.20;64.20
27072;DHT22;14613;46.308;25.288;2023-06-10T13:48:17;23.20;64.10
27072;DHT22;14613;46.308;25.288;2023-06-10T13:50:43;23.20;64.10
27072;DHT22;14613;46.308;25.288;2023-06-10T13:53:11;23.20;64.20
27072;DHT22;14613;46.308;25.288;2023-06-10T13:55:37;23.20;64.20
27072;DHT22;14613;46.308;25.288;2023-06-10T13:58:03;23.20;64.30
27072;DHT22;14613;46.308;25.288;2023-06-10T14:00:29;23.10;64.70
27072;DHT22;14613;46.308;25.288;2023-06-10T14:02:55;23.10;65.00
27072;DHT22;14613;46.308;25.288;2023-06-10T14:05:20;23.20;65.10
27072;DHT22;14613;46.308;25.288;2023-06-10T14:07:46;23.30;65.10
27072;DHT22;14613;46.308;25.288;2023-06-10T14:10:12;23.40;65.10
27072;DHT22;14613;46.308;25.288;2023-06-10T14:12:38;23.40;65.00
27072;DHT22;14613;46.308;25.288;2023-06-10T14:15:04;23.60;65.10
27072;DHT22;14613;46.308;25.288;2023-06-10T14:17:30;23.70;65.00
27072;DHT22;14613;46.308;25.288;2023-06-10T14:19:56;23.80;65.00
27072;DHT22;14613;46.308;25.288;2023-06-10T14:22:21;23.90;65.00
27072;DHT22;14613;46.308;25.288;2023-06-10T14:24:47;24.00;64.80
27072;DHT22;14613;46.308;25.288;2023-06-10T14:27:13;24.10;64.80
27072;DHT22;14613;46.308;25.288;2023-06-10T14:29:39;24.10;64.70
27072;DHT22;14613;46.308;25.288;2023-06-10T14:32:04;24.20;64.60
27072;DHT22;14613;46.308;25.288;2023-06-10T14:34:30;24.30;65.30
27072;DHT22;14613;46.308;25.288;2023-06-10T14:36:59;24.40;64.30
27072;DHT22;14613;46.308;25.288;2023-06-10T14:39:25;24.40;64.40
27072;DHT22;14613;46.308;25.288;2023-06-10T14:41:51;24.50;64.50
27072;DHT22;14613;46.308;25.288;2023-06-10T14:44:18;24.50;64.40
27072;DHT22;14613;46.308;25.288;2023-06-10T14:46:44;24.60;65.10
27072;DHT22;14613;46.308;25.288;2023-06-10T14:49:10;24.70;64.20
27072;DHT22;14613;46.308;25.288;2023-06-10T14:51:35;24.90;64.10
27072;DHT22;14613;46.308;25.288;2023-06-10T14:54:01;25.00;63.90
27072;DHT22;14613;46.308;25.288;2023-06-10T14:56:27;25.20;63.70
27072;DHT22;14613;46.308;25.288;2023-06-10T14:58:52;25.30;63.50
27072;DHT22;14613;46.308;25.288;2023-06-10T15:01:18;25.40;63.30
27072;DHT22;14613;46.308;25.288;2023-06-10T15:03:44;25.50;63.30
27072;DHT22;14613;46.308;25.288;2023-06-10T15:06:10;25.60;63.10
27072;DHT22;14613;46.308;25.288;2023-06-10T15:08:36;25.70;63.60
27072;DHT22;14613;46.308;25.288;2023-06-10T15:11:02;25.90;62.60
27072;DHT22;14613;46.308;25.288;2023-06-10T15:13:28;26.00;62.40
27072;DHT22;14613;46.308;25.288;2023-06-10T15:15:54;26.10;62.30
27072;DHT22;14613;46.308;25.288;2023-06-10T15:18:19;26.20;62.00
27072;DHT22;14613;46.308;25.288;2023-06-10T15:20:45;26.20;62.00
27072;DHT22;14613;46.308;25.288;2023-06-10T15:23:11;26.20;62.20
27072;DHT22;14613;46.308;25.288;2023-06-10T15:25:37;26.10;62.50
27072;DHT22;14613;46.308;25.288;2023-06-10T15:28:02;26.10;62.80
27072;DHT22;14613;46.308;25.288;2023-06-10T15:30:29;26.00;62.90
27072;DHT22;14613;46.308;25.288;2023-06-10T15:32:54;25.80;62.90